Gewoia Airport


Codes: GEW/GEW
Name: Gewoia Airport
City: Gewoia
Country: Papua New Guinea
Elevation: 340 ft.

Photos at Gewoia Airport


   Photos courtesy of SpottingLog. You can add your own sightings and photos by signing up for a free trial today.



No photos found.

Weather at Gewoia Airport


Time (UTC)DescriptionTempratureWindCloud coverageVisibilityPressureHumidity
25-Jun-2024 15:00Overcast Clouds23°C2 mph, W88%10000m1014hPa96%
25-Jun-2024 18:00Broken Clouds23°C2 mph, W59%10000m1013hPa95%
25-Jun-2024 21:00Few Clouds23°C2 mph, W12%10000m1013hPa89%
26-Jun-2024 00:00Light Rain29°C2 mph, E11%10000m1014hPa66%
26-Jun-2024 03:00Light Rain29°C4 mph, NE37%9980m1011hPa72%
26-Jun-2024 06:00Light Rain28°C2 mph, NE37%10000m1010hPa77%
26-Jun-2024 09:00Light Rain23°C2 mph, NW24%10000m1012hPa96%
26-Jun-2024 12:00Light Rain23°C2 mph, W22%10000m1014hPa97%
26-Jun-2024 15:00Scattered Clouds22°C2 mph, W40%10000m1012hPa96%
26-Jun-2024 18:00Broken Clouds22°C2 mph, W65%10000m1012hPa95%
26-Jun-2024 21:00Overcast Clouds22°C2 mph, W86%10000m1013hPa92%
27-Jun-2024 00:00Overcast Clouds30°C2 mph, E92%10000m1013hPa60%
27-Jun-2024 03:00Light Rain32°C4 mph, NE59%10000m1010hPa54%
27-Jun-2024 06:00Light Rain29°C4 mph, NE80%10000m1009hPa68%
27-Jun-2024 09:00Light Rain23°C2 mph, NW71%10000m1012hPa97%
27-Jun-2024 12:00Light Rain23°C2 mph, SW85%10000m1013hPa97%
27-Jun-2024 15:00Overcast Clouds23°C2 mph, SW99%10000m1013hPa95%
27-Jun-2024 18:00Light Rain23°C4 mph, SW99%10000m1012hPa96%
27-Jun-2024 21:00Light Rain23°C2 mph, W100%10000m1013hPa94%
28-Jun-2024 00:00Overcast Clouds28°C2 mph, SE96%10000m1014hPa69%
28-Jun-2024 03:00Light Rain29°C4 mph, SE91%10000m1011hPa74%
28-Jun-2024 06:00Light Rain27°C2 mph, NE88%10000m1011hPa90%
28-Jun-2024 09:00Light Rain23°C0 mph, SW99%10000m1013hPa98%
28-Jun-2024 12:00Overcast Clouds23°C2 mph, SW99%10000m1014hPa98%
28-Jun-2024 15:00Overcast Clouds22°C2 mph, SW100%10000m1013hPa98%
28-Jun-2024 18:00Overcast Clouds22°C2 mph, SW99%10000m1012hPa97%
28-Jun-2024 21:00Overcast Clouds22°C2 mph, SW100%10000m1014hPa96%
29-Jun-2024 00:00Broken Clouds29°C2 mph, E84%10000m1014hPa61%
29-Jun-2024 03:00Light Rain31°C4 mph, E85%10000m1011hPa53%
29-Jun-2024 06:00Overcast Clouds30°C4 mph, NE86%10000m1010hPa57%
29-Jun-2024 09:00Broken Clouds23°C2 mph, NW80%10000m1012hPa92%
29-Jun-2024 12:00Overcast Clouds22°C4 mph, SW90%10000m1014hPa95%
29-Jun-2024 15:00Overcast Clouds22°C2 mph, SW100%10000m1013hPa88%
29-Jun-2024 18:00Overcast Clouds22°C4 mph, W100%10000m1013hPa82%
29-Jun-2024 21:00Overcast Clouds22°C2 mph, W100%10000m1014hPa81%
30-Jun-2024 00:00Overcast Clouds29°C2 mph, NE100%10000m1014hPa61%
30-Jun-2024 03:00Overcast Clouds30°C7 mph, NE100%10000m1011hPa57%
30-Jun-2024 06:00Light Rain26°C2 mph, E99%10000m1010hPa83%
30-Jun-2024 09:00Moderate Rain23°C2 mph, NE96%4659m1012hPa100%
30-Jun-2024 12:00Moderate Rain23°C2 mph, N98%1822m1013hPa100%